sensor_id;sensor_type;location;lat;lon;timestamp;pressure;altitude;pressure_sealevel;temperature;humidity
51452;BME280;37521;52.020;-1.740;2023-06-14T00:00:37;100086.75;;;10.00;100.00
51452;BME280;37521;52.020;-1.740;2023-06-14T00:03:08;100087.53;;;10.02;100.00
51452;BME280;37521;52.020;-1.740;2023-06-14T00:05:38;100093.34;;;10.10;100.00
51452;BME280;37521;52.020;-1.740;2023-06-14T00:08:10;100091.00;;;10.02;100.00
51452;BME280;37521;52.020;-1.740;2023-06-14T00:10:38;100096.63;;;9.95;100.00
51452;BME280;37521;52.020;-1.740;2023-06-14T00:13:08;100100.19;;;9.94;100.00
51452;BME280;37521;52.020;-1.740;2023-06-14T00:15:37;100100.78;;;10.00;100.00
51452;BME280;37521;52.020;-1.740;2023-06-14T00:18:06;100096.44;;;9.99;100.00
51452;BME280;37521;52.020;-1.740;2023-06-14T00:20:38;100102.03;;;9.92;100.00
51452;BME280;37521;52.020;-1.740;2023-06-14T00:23:09;100098.97;;;9.80;100.00
51452;BME280;37521;52.020;-1.740;2023-06-14T00:25:38;100097.66;;;9.70;100.00
51452;BME280;37521;52.020;-1.740;2023-06-14T00:28:06;100092.66;;;9.64;100.00
51452;BME280;37521;52.020;-1.740;2023-06-14T00:30:35;100098.16;;;9.58;100.00
51452;BME280;37521;52.020;-1.740;2023-06-14T00:33:04;100091.28;;;9.54;100.00
51452;BME280;37521;52.020;-1.740;2023-06-14T00:35:32;100088.59;;;9.55;100.00
51452;BME280;37521;52.020;-1.740;2023-06-14T00:38:03;100098.22;;;9.57;100.00
51452;BME280;37521;52.020;-1.740;2023-06-14T00:40:32;100103.44;;;9.58;100.00
51452;BME280;37521;52.020;-1.740;2023-06-14T00:43:01;100101.66;;;9.59;100.00
51452;BME280;37521;52.020;-1.740;2023-06-14T00:45:30;100106.75;;;9.63;100.00
51452;BME280;37521;52.020;-1.740;2023-06-14T00:48:03;100099.63;;;9.65;100.00
51452;BME280;37521;52.020;-1.740;2023-06-14T00:50:33;100105.00;;;9.62;100.00
51452;BME280;37521;52.020;-1.740;2023-06-14T00:53:04;100104.34;;;9.57;100.00
51452;BME280;37521;52.020;-1.740;2023-06-14T00:55:33;100104.47;;;9.54;100.00
51452;BME280;37521;52.020;-1.740;2023-06-14T00:58:02;100111.84;;;9.46;100.00
51452;BME280;37521;52.020;-1.740;2023-06-14T01:00:30;100111.03;;;9.44;100.00
51452;BME280;37521;52.020;-1.740;2023-06-14T01:02:59;100112.06;;;9.40;100.00
51452;BME280;37521;52.020;-1.740;2023-06-14T01:05:28;100114.94;;;9.34;100.00
51452;BME280;37521;52.020;-1.740;2023-06-14T01:08:16;100117.88;;;9.26;100.00
51452;BME280;37521;52.020;-1.740;2023-06-14T01:10:53;100104.88;;;9.21;100.00
51452;BME280;37521;52.020;-1.740;2023-06-14T01:13:29;100119.13;;;9.17;100.00
51452;BME280;37521;52.020;-1.740;2023-06-14T01:16:01;100114.09;;;9.11;100.00
51452;BME280;37521;52.020;-1.740;2023-06-14T01:18:30;100120.38;;;9.07;100.00
51452;BME280;37521;52.020;-1.740;2023-06-14T01:21:01;100120.91;;;8.93;100.00
51452;BME280;37521;52.020;-1.740;2023-06-14T01:23:34;100124.13;;;8.78;100.00
51452;BME280;37521;52.020;-1.740;2023-06-14T01:26:02;100123.94;;;8.59;100.00
51452;BME280;37521;52.020;-1.740;2023-06-14T01:28:33;100127.06;;;8.45;100.00
51452;BME280;37521;52.020;-1.740;2023-06-14T01:31:05;100129.09;;;8.37;100.00
51452;BME280;37521;52.020;-1.740;2023-06-14T01:33:35;100140.66;;;8.32;100.00
51452;BME280;37521;52.020;-1.740;2023-06-14T01:36:05;100132.72;;;8.33;100.00
51452;BME280;37521;52.020;-1.740;2023-06-14T01:38:37;100144.09;;;8.34;100.00
51452;BME280;37521;52.020;-1.740;2023-06-14T01:41:07;100145.94;;;8.32;100.00
51452;BME280;37521;52.020;-1.740;2023-06-14T01:43:35;100146.47;;;8.16;100.00
51452;BME280;37521;52.020;-1.740;2023-06-14T01:46:05;100139.41;;;7.92;100.00
51452;BME280;37521;52.020;-1.740;2023-06-14T01:48:35;100138.28;;;7.73;100.00
51452;BME280;37521;52.020;-1.740;2023-06-14T01:51:03;100139.31;;;7.67;100.00
51452;BME280;37521;52.020;-1.740;2023-06-14T01:53:32;100138.47;;;7.67;100.00
51452;BME280;37521;52.020;-1.740;2023-06-14T01:56:02;100136.66;;;7.69;100.00
51452;BME280;37521;52.020;-1.740;2023-06-14T01:58:31;100140.38;;;7.61;100.00
51452;BME280;37521;52.020;-1.740;2023-06-14T02:01:00;100137.34;;;7.47;100.00
51452;BME280;37521;52.020;-1.740;2023-06-14T02:03:29;100148.44;;;7.29;100.00
51452;BME280;37521;52.020;-1.740;2023-06-14T02:05:58;100132.88;;;7.21;100.00
51452;BME280;37521;52.020;-1.740;2023-06-14T02:08:27;100129.50;;;7.18;100.00
51452;BME280;37521;52.020;-1.740;2023-06-14T02:10:55;100128.72;;;7.14;100.00
51452;BME280;37521;52.020;-1.740;2023-06-14T02:13:25;100135.56;;;7.20;100.00
51452;BME280;37521;52.020;-1.740;2023-06-14T02:15:54;100134.47;;;7.27;100.00
51452;BME280;37521;52.020;-1.740;2023-06-14T02:18:23;100134.81;;;7.16;100.00
51452;BME280;37521;52.020;-1.740;2023-06-14T02:20:51;100135.03;;;7.08;100.00
51452;BME280;37521;52.020;-1.740;2023-06-14T02:23:20;100127.34;;;7.02;100.00
51452;BME280;37521;52.020;-1.740;2023-06-14T02:25:48;100129.72;;;6.80;100.00
51452;BME280;37521;52.020;-1.740;2023-06-14T02:28:17;100124.25;;;6.59;100.00
51452;BME280;37521;52.020;-1.740;2023-06-14T02:30:47;100124.69;;;6.43;100.00
51452;BME280;37521;52.020;-1.740;2023-06-14T02:33:15;100133.69;;;6.33;100.00
51452;BME280;37521;52.020;-1.740;2023-06-14T02:35:44;100124.00;;;6.37;100.00
51452;BME280;37521;52.020;-1.740;2023-06-14T02:38:13;100127.25;;;6.45;100.00
51452;BME280;37521;52.020;-1.740;2023-06-14T02:40:42;100125.75;;;6.36;100.00
51452;BME280;37521;52.020;-1.740;2023-06-14T02:43:10;100130.31;;;6.30;100.00
51452;BME280;37521;52.020;-1.740;2023-06-14T02:45:39;100127.69;;;6.28;100.00
51452;BME280;37521;52.020;-1.740;2023-06-14T02:48:09;100118.31;;;6.19;100.00
51452;BME280;37521;52.020;-1.740;2023-06-14T02:50:40;100118.69;;;6.06;100.00
51452;BME280;37521;52.020;-1.740;2023-06-14T02:53:08;100120.56;;;6.00;100.00
51452;BME280;37521;52.020;-1.740;2023-06-14T02:55:37;100115.41;;;5.97;100.00
51452;BME280;37521;52.020;-1.740;2023-06-14T02:58:08;100118.84;;;5.99;100.00
51452;BME280;37521;52.020;-1.740;2023-06-14T03:00:37;100121.50;;;5.98;100.00
51452;BME280;37521;52.020;-1.740;2023-06-14T03:03:06;100122.22;;;6.05;100.00
51452;BME280;37521;52.020;-1.740;2023-06-14T03:05:47;100120.06;;;5.85;100.00
51452;BME280;37521;52.020;-1.740;2023-06-14T03:08:21;100128.19;;;5.74;100.00
51452;BME280;37521;52.020;-1.740;2023-06-14T03:10:56;100122.94;;;5.76;100.00
51452;BME280;37521;52.020;-1.740;2023-06-14T03:13:25;100122.94;;;5.74;100.00
51452;BME280;37521;52.020;-1.740;2023-06-14T03:15:54;100121.38;;;5.68;100.00
51452;BME280;37521;52.020;-1.740;2023-06-14T03:18:24;100116.22;;;5.64;100.00
51452;BME280;37521;52.020;-1.740;2023-06-14T03:20:57;100121.53;;;5.61;100.00
51452;BME280;37521;52.020;-1.740;2023-06-14T03:23:27;100121.66;;;5.55;100.00
51452;BME280;37521;52.020;-1.740;2023-06-14T03:25:56;100123.19;;;5.65;100.00
51452;BME280;37521;52.020;-1.740;2023-06-14T03:28:25;100114.28;;;5.72;100.00
51452;BME280;37521;52.020;-1.740;2023-06-14T03:30:56;100118.63;;;5.73;100.00
51452;BME280;37521;52.020;-1.740;2023-06-14T03:33:26;100119.66;;;5.66;100.00
51452;BME280;37521;52.020;-1.740;2023-06-14T03:35:55;100119.09;;;5.53;100.00
51452;BME280;37521;52.020;-1.740;2023-06-14T03:38:25;100120.31;;;5.38;100.00
51452;BME280;37521;52.020;-1.740;2023-06-14T03:40:54;100117.66;;;5.40;100.00
51452;BME280;37521;52.020;-1.740;2023-06-14T03:43:22;100121.84;;;5.49;100.00
51452;BME280;37521;52.020;-1.740;2023-06-14T03:45:53;100121.97;;;5.42;100.00
51452;BME280;37521;52.020;-1.740;2023-06-14T03:48:23;100123.84;;;5.37;100.00
51452;BME280;37521;52.020;-1.740;2023-06-14T03:50:52;100122.25;;;5.30;100.00
51452;BME280;37521;52.020;-1.740;2023-06-14T03:53:27;100126.66;;;5.30;100.00
51452;BME280;37521;52.020;-1.740;2023-06-14T03:55:58;100132.59;;;5.36;100.00
51452;BME280;37521;52.020;-1.740;2023-06-14T03:58:36;100139.13;;;5.56;100.00
51452;BME280;37521;52.020;-1.740;2023-06-14T04:01:05;100130.94;;;5.69;100.00
51452;BME280;37521;52.020;-1.740;2023-06-14T04:03:34;100129.22;;;5.68;100.00
51452;BME280;37521;52.020;-1.740;2023-06-14T04:06:04;100129.47;;;5.58;100.00
51452;BME280;37521;52.020;-1.740;2023-06-14T04:08:34;100127.81;;;5.55;100.00
51452;BME280;37521;52.020;-1.740;2023-06-14T04:11:02;100132.16;;;5.55;100.00
51452;BME280;37521;52.020;-1.740;2023-06-14T04:13:31;100133.75;;;5.62;100.00
51452;BME280;37521;52.020;-1.740;2023-06-14T04:16:04;100141.75;;;5.54;100.00
51452;BME280;37521;52.020;-1.740;2023-06-14T04:18:35;100142.56;;;5.58;100.00
51452;BME280;37521;52.020;-1.740;2023-06-14T04:21:03;100144.22;;;5.62;100.00
51452;BME280;37521;52.020;-1.740;2023-06-14T04:23:35;100144.09;;;5.66;100.00
51452;BME280;37521;52.020;-1.740;2023-06-14T04:26:05;100142.34;;;5.67;100.00
51452;BME280;37521;52.020;-1.740;2023-06-14T04:28:33;100142.34;;;5.67;100.00
51452;BME280;37521;52.020;-1.740;2023-06-14T04:31:04;100140.56;;;5.69;100.00
51452;BME280;37521;52.020;-1.740;2023-06-14T04:33:35;100137.75;;;5.75;100.00
51452;BME280;37521;52.020;-1.740;2023-06-14T04:36:14;100139.53;;;5.74;100.00
51452;BME280;37521;52.020;-1.740;2023-06-14T04:38:48;100138.50;;;5.80;100.00
51452;BME280;37521;52.020;-1.740;2023-06-14T04:41:23;100144.31;;;5.94;100.00
51452;BME280;37521;52.020;-1.740;2023-06-14T04:44:00;100138.25;;;5.92;100.00
51452;BME280;37521;52.020;-1.740;2023-06-14T04:46:34;100136.44;;;5.94;100.00
51452;BME280;37521;52.020;-1.740;2023-06-14T04:49:18;100139.16;;;5.91;100.00
51452;BME280;37521;52.020;-1.740;2023-06-14T04:51:47;100141.66;;;5.96;100.00
51452;BME280;37521;52.020;-1.740;2023-06-14T04:54:19;100139.75;;;6.03;100.00
51452;BME280;37521;52.020;-1.740;2023-06-14T04:56:48;100141.41;;;6.05;100.00
51452;BME280;37521;52.020;-1.740;2023-06-14T04:59:18;100143.03;;;6.11;100.00
51452;BME280;37521;52.020;-1.740;2023-06-14T05:01:46;100152.28;;;6.24;100.00
51452;BME280;37521;52.020;-1.740;2023-06-14T05:04:17;100144.97;;;6.37;100.00
51452;BME280;37521;52.020;-1.740;2023-06-14T05:06:46;100134.91;;;6.52;100.00
51452;BME280;37521;52.020;-1.740;2023-06-14T05:09:15;100139.88;;;6.63;100.00
51452;BME280;37521;52.020;-1.740;2023-06-14T05:11:46;100138.63;;;6.76;100.00
51452;BME280;37521;52.020;-1.740;2023-06-14T05:14:15;100134.84;;;6.85;100.00
51452;BME280;37521;52.020;-1.740;2023-06-14T05:16:43;100136.34;;;6.94;100.00
51452;BME280;37521;52.020;-1.740;2023-06-14T05:19:12;100131.69;;;7.03;100.00
51452;BME280;37521;52.020;-1.740;2023-06-14T05:21:41;100133.13;;;7.14;100.00
51452;BME280;37521;52.020;-1.740;2023-06-14T05:24:09;100138.97;;;7.23;100.00
51452;BME280;37521;52.020;-1.740;2023-06-14T05:26:38;100143.06;;;7.32;100.00
51452;BME280;37521;52.020;-1.740;2023-06-14T05:29:09;100140.13;;;7.43;100.00
51452;BME280;37521;52.020;-1.740;2023-06-14T05:31:37;100136.41;;;7.48;100.00
51452;BME280;37521;52.020;-1.740;2023-06-14T05:34:06;100142.34;;;7.55;100.00
51452;BME280;37521;52.020;-1.740;2023-06-14T05:36:35;100141.22;;;7.63;100.00
51452;BME280;37521;52.020;-1.740;2023-06-14T05:39:04;100141.91;;;7.69;100.00
51452;BME280;37521;52.020;-1.740;2023-06-14T05:41:32;100138.09;;;7.79;100.00
51452;BME280;37521;52.020;-1.740;2023-06-14T05:44:01;100142.16;;;7.87;100.00
51452;BME280;37521;52.020;-1.740;2023-06-14T05:46:31;100142.03;;;7.92;100.00
51452;BME280;37521;52.020;-1.740;2023-06-14T05:49:00;100148.78;;;7.99;100.00
51452;BME280;37521;52.020;-1.740;2023-06-14T05:51:28;100149.44;;;8.06;100.00
51452;BME280;37521;52.020;-1.740;2023-06-14T05:53:57;100146.56;;;8.13;100.00
51452;BME280;37521;52.020;-1.740;2023-06-14T05:56:25;100145.44;;;8.20;100.00
51452;BME280;37521;52.020;-1.740;2023-06-14T05:58:54;100141.78;;;8.25;100.00
51452;BME280;37521;52.020;-1.740;2023-06-14T06:01:22;100140.53;;;8.35;100.00
51452;BME280;37521;52.020;-1.740;2023-06-14T06:03:53;100156.09;;;8.42;100.00
51452;BME280;37521;52.020;-1.740;2023-06-14T06:06:22;100147.94;;;8.50;100.00
51452;BME280;37521;52.020;-1.740;2023-06-14T06:08:50;100152.03;;;8.59;100.00
51452;BME280;37521;52.020;-1.740;2023-06-14T06:11:19;100149.09;;;8.66;100.00
51452;BME280;37521;52.020;-1.740;2023-06-14T06:13:47;100154.03;;;8.76;100.00
51452;BME280;37521;52.020;-1.740;2023-06-14T06:16:16;100155.28;;;8.89;100.00
51452;BME280;37521;52.020;-1.740;2023-06-14T06:18:44;100157.31;;;9.06;100.00
51452;BME280;37521;52.020;-1.740;2023-06-14T06:21:14;100161.44;;;9.13;100.00
51452;BME280;37521;52.020;-1.740;2023-06-14T06:23:43;100169.97;;;9.19;100.00
51452;BME280;37521;52.020;-1.740;2023-06-14T06:26:11;100161.13;;;9.20;100.00
51452;BME280;37521;52.020;-1.740;2023-06-14T06:28:40;100163.66;;;9.23;100.00
51452;BME280;37521;52.020;-1.740;2023-06-14T06:31:08;100166.06;;;9.30;100.00
51452;BME280;37521;52.020;-1.740;2023-06-14T06:33:38;100156.81;;;9.41;100.00
51452;BME280;37521;52.020;-1.740;2023-06-14T06:36:07;100162.38;;;9.55;100.00
51452;BME280;37521;52.020;-1.740;2023-06-14T06:38:40;100167.19;;;9.68;100.00
51452;BME280;37521;52.020;-1.740;2023-06-14T06:41:09;100166.63;;;9.81;100.00
51452;BME280;37521;52.020;-1.740;2023-06-14T06:43:37;100165.34;;;9.92;100.00
51452;BME280;37521;52.020;-1.740;2023-06-14T06:46:08;100165.09;;;9.98;100.00
51452;BME280;37521;52.020;-1.740;2023-06-14T06:48:36;100159.56;;;10.04;100.00
51452;BME280;37521;52.020;-1.740;2023-06-14T06:51:05;100164.84;;;10.04;100.00
51452;BME280;37521;52.020;-1.740;2023-06-14T06:53:33;100166.28;;;10.11;100.00
51452;BME280;37521;52.020;-1.740;2023-06-14T06:56:12;100161.63;;;10.18;100.00
51452;BME280;37521;52.020;-1.740;2023-06-14T06:58:41;100157.91;;;10.23;100.00
51452;BME280;37521;52.020;-1.740;2023-06-14T07:01:10;100161.00;;;10.33;100.00
51452;BME280;37521;52.020;-1.740;2023-06-14T07:03:40;100153.59;;;10.41;100.00
51452;BME280;37521;52.020;-1.740;2023-06-14T07:06:09;100164.06;;;10.43;100.00
51452;BME280;37521;52.020;-1.740;2023-06-14T07:08:38;100163.88;;;10.47;100.00
51452;BME280;37521;52.020;-1.740;2023-06-14T07:11:06;100167.31;;;10.49;100.00
51452;BME280;37521;52.020;-1.740;2023-06-14T07:13:36;100164.38;;;10.57;100.00
51452;BME280;37521;52.020;-1.740;2023-06-14T07:16:05;100161.97;;;10.71;100.00
51452;BME280;37521;52.020;-1.740;2023-06-14T07:18:33;100165.69;;;10.86;100.00
51452;BME280;37521;52.020;-1.740;2023-06-14T07:21:04;100169.72;;;10.95;100.00
51452;BME280;37521;52.020;-1.740;2023-06-14T07:23:34;100162.72;;;10.94;100.00
51452;BME280;37521;52.020;-1.740;2023-06-14T07:26:07;100170.38;;;11.00;100.00
51452;BME280;37521;52.020;-1.740;2023-06-14T07:28:38;100168.31;;;11.06;100.00
51452;BME280;37521;52.020;-1.740;2023-06-14T07:31:07;100171.59;;;11.11;100.00
51452;BME280;37521;52.020;-1.740;2023-06-14T07:33:36;100172.22;;;11.16;100.00
51452;BME280;37521;52.020;-1.740;2023-06-14T07:36:05;100170.16;;;11.23;100.00
51452;BME280;37521;52.020;-1.740;2023-06-14T07:38:33;100161.94;;;11.29;100.00
51452;BME280;37521;52.020;-1.740;2023-06-14T07:41:03;100165.31;;;11.33;100.00
51452;BME280;37521;52.020;-1.740;2023-06-14T07:43:32;100168.44;;;11.41;100.00
51452;BME280;37521;52.020;-1.740;2023-06-14T07:46:02;100171.56;;;11.49;100.00
51452;BME280;37521;52.020;-1.740;2023-06-14T07:48:34;100172.88;;;11.59;100.00
51452;BME280;37521;52.020;-1.740;2023-06-14T07:51:03;100172.41;;;11.68;100.00
51452;BME280;37521;52.020;-1.740;2023-06-14T07:53:32;100178.13;;;11.78;100.00
51452;BME280;37521;52.020;-1.740;2023-06-14T07:56:00;100180.28;;;11.89;100.00
51452;BME280;37521;52.020;-1.740;2023-06-14T07:58:29;100179.88;;;11.96;100.00
51452;BME280;37521;52.020;-1.740;2023-06-14T08:00:58;100175.22;;;12.02;100.00
51452;BME280;37521;52.020;-1.740;2023-06-14T08:03:30;100182.22;;;12.03;100.00
51452;BME280;37521;52.020;-1.740;2023-06-14T08:05:58;100171.66;;;12.03;100.00
51452;BME280;37521;52.020;-1.740;2023-06-14T08:08:27;100180.09;;;12.11;100.00
51452;BME280;37521;52.020;-1.740;2023-06-14T08:10:56;100171.69;;;12.20;100.00
51452;BME280;37521;52.020;-1.740;2023-06-14T08:13:24;100176.66;;;12.26;100.00
51452;BME280;37521;52.020;-1.740;2023-06-14T08:15:53;100174.69;;;12.30;100.00
51452;BME280;37521;52.020;-1.740;2023-06-14T08:18:22;100176.09;;;12.37;100.00
51452;BME280;37521;52.020;-1.740;2023-06-14T08:20:53;100177.84;;;12.38;100.00
51452;BME280;37521;52.020;-1.740;2023-06-14T08:23:25;100187.09;;;12.46;100.00
51452;BME280;37521;52.020;-1.740;2023-06-14T08:25:54;100178.75;;;12.54;100.00
51452;BME280;37521;52.020;-1.740;2023-06-14T08:28:24;100182.03;;;12.59;100.00
51452;BME280;37521;52.020;-1.740;2023-06-14T08:30:53;100183.09;;;12.72;100.00
51452;BME280;37521;52.020;-1.740;2023-06-14T08:33:21;100181.75;;;12.81;100.00
51452;BME280;37521;52.020;-1.740;2023-06-14T08:35:51;100184.16;;;12.86;100.00
51452;BME280;37521;52.020;-1.740;2023-06-14T08:38:20;100187.63;;;13.03;100.00
51452;BME280;37521;52.020;-1.740;2023-06-14T08:40:50;100194.72;;;13.20;100.00
51452;BME280;37521;52.020;-1.740;2023-06-14T08:43:19;100186.41;;;13.26;100.00
51452;BME280;37521;52.020;-1.740;2023-06-14T08:45:48;100186.19;;;13.31;100.00
51452;BME280;37521;52.020;-1.740;2023-06-14T08:48:19;100182.50;;;13.33;100.00
51452;BME280;37521;52.020;-1.740;2023-06-14T08:50:54;100176.94;;;13.38;100.00
51452;BME280;37521;52.020;-1.740;2023-06-14T08:53:30;100178.47;;;13.42;100.00
51452;BME280;37521;52.020;-1.740;2023-06-14T08:56:05;100172.16;;;13.60;100.00
51452;BME280;37521;52.020;-1.740;2023-06-14T08:58:34;100175.63;;;13.77;100.00
51452;BME280;37521;52.020;-1.740;2023-06-14T09:01:03;100175.03;;;13.87;100.00
51452;BME280;37521;52.020;-1.740;2023-06-14T09:03:34;100179.81;;;13.97;100.00
51452;BME280;37521;52.020;-1.740;2023-06-14T09:06:09;100176.94;;;14.15;100.00
51452;BME280;37521;52.020;-1.740;2023-06-14T09:08:41;100175.63;;;14.23;100.00
51452;BME280;37521;52.020;-1.740;2023-06-14T09:11:11;100171.97;;;14.25;100.00
51452;BME280;37521;52.020;-1.740;2023-06-14T09:13:41;100184.88;;;14.31;100.00
51452;BME280;37521;52.020;-1.740;2023-06-14T09:16:10;100168.94;;;14.31;100.00
51452;BME280;37521;52.020;-1.740;2023-06-14T09:18:41;100168.28;;;14.42;100.00
51452;BME280;37521;52.020;-1.740;2023-06-14T09:21:13;100170.75;;;14.61;100.00
51452;BME280;37521;52.020;-1.740;2023-06-14T09:23:43;100174.06;;;14.64;100.00
51452;BME280;37521;52.020;-1.740;2023-06-14T09:26:14;100171.88;;;14.71;100.00
51452;BME280;37521;52.020;-1.740;2023-06-14T09:28:43;100172.19;;;14.81;100.00
51452;BME280;37521;52.020;-1.740;2023-06-14T09:31:12;100171.81;;;14.87;100.00
51452;BME280;37521;52.020;-1.740;2023-06-14T09:33:41;100174.47;;;15.01;100.00
51452;BME280;37521;52.020;-1.740;2023-06-14T09:36:17;100173.13;;;15.22;100.00
51452;BME280;37521;52.020;-1.740;2023-06-14T09:38:51;100172.72;;;15.43;100.00
51452;BME280;37521;52.020;-1.740;2023-06-14T09:41:21;100165.09;;;15.51;100.00
51452;BME280;37521;52.020;-1.740;2023-06-14T09:43:49;100170.97;;;15.56;100.00
51452;BME280;37521;52.020;-1.740;2023-06-14T09:46:18;100178.56;;;15.76;100.00
51452;BME280;37521;52.020;-1.740;2023-06-14T09:48:47;100180.72;;;15.84;100.00
51452;BME280;37521;52.020;-1.740;2023-06-14T09:51:18;100181.00;;;15.94;100.00
51452;BME280;37521;52.020;-1.740;2023-06-14T09:53:48;100179.41;;;16.04;100.00
51452;BME280;37521;52.020;-1.740;2023-06-14T09:56:22;100175.63;;;16.21;100.00
51452;BME280;37521;52.020;-1.740;2023-06-14T09:58:54;100174.50;;;16.38;100.00
51452;BME280;37521;52.020;-1.740;2023-06-14T10:01:35;100183.91;;;16.56;100.00
51452;BME280;37521;52.020;-1.740;2023-06-14T10:04:09;100171.28;;;16.72;100.00
51452;BME280;37521;52.020;-1.740;2023-06-14T10:06:41;100191.44;;;16.76;100.00
51452;BME280;37521;52.020;-1.740;2023-06-14T10:09:12;100176.69;;;16.83;100.00
51452;BME280;37521;52.020;-1.740;2023-06-14T10:11:41;100171.47;;;16.95;100.00
51452;BME280;37521;52.020;-1.740;2023-06-14T10:14:12;100172.28;;;17.33;100.00
51452;BME280;37521;52.020;-1.740;2023-06-14T10:16:47;100166.75;;;17.73;100.00
51452;BME280;37521;52.020;-1.740;2023-06-14T10:19:24;100160.44;;;17.98;100.00
51452;BME280;37521;52.020;-1.740;2023-06-14T10:21:59;100174.72;;;18.10;100.00
51452;BME280;37521;52.020;-1.740;2023-06-14T10:24:32;100164.09;;;18.32;100.00
51452;BME280;37521;52.020;-1.740;2023-06-14T10:27:01;100172.88;;;18.34;100.00
51452;BME280;37521;52.020;-1.740;2023-06-14T10:29:30;100168.03;;;18.50;100.00
51452;BME280;37521;52.020;-1.740;2023-06-14T10:32:00;100173.38;;;18.50;100.00
51452;BME280;37521;52.020;-1.740;2023-06-14T10:34:31;100168.28;;;18.47;100.00
51452;BME280;37521;52.020;-1.740;2023-06-14T10:37:05;100162.47;;;18.54;100.00
51452;BME280;37521;52.020;-1.740;2023-06-14T10:39:38;100163.31;;;18.54;100.00
51452;BME280;37521;52.020;-1.740;2023-06-14T10:42:08;100169.13;;;18.48;100.00
51452;BME280;37521;52.020;-1.740;2023-06-14T10:44:44;100174.81;;;18.43;100.00
51452;BME280;37521;52.020;-1.740;2023-06-14T10:47:27;100170.16;;;18.23;100.00
51452;BME280;37521;52.020;-1.740;2023-06-14T10:50:03;100177.91;;;18.15;100.00
51452;BME280;37521;52.020;-1.740;2023-06-14T10:52:35;100172.59;;;18.26;100.00
51452;BME280;37521;52.020;-1.740;2023-06-14T10:55:09;100169.91;;;18.61;100.00
51452;BME280;37521;52.020;-1.740;2023-06-14T10:57:40;100171.16;;;18.68;100.00
51452;BME280;37521;52.020;-1.740;2023-06-14T11:00:13;100164.84;;;18.69;100.00
51452;BME280;37521;52.020;-1.740;2023-06-14T11:05:52;100155.28;;;19.00;100.00
51452;BME280;37521;52.020;-1.740;2023-06-14T11:09:02;100151.13;;;19.30;100.00
51452;BME280;37521;52.020;-1.740;2023-06-14T11:11:38;100152.44;;;19.47;100.00
51452;BME280;37521;52.020;-1.740;2023-06-14T11:14:10;100148.88;;;19.80;100.00
51452;BME280;37521;52.020;-1.740;2023-06-14T11:16:39;100146.91;;;19.82;100.00
51452;BME280;37521;52.020;-1.740;2023-06-14T11:19:07;100143.66;;;19.99;100.00
51452;BME280;37521;52.020;-1.740;2023-06-14T11:21:40;100142.94;;;20.29;100.00
51452;BME280;37521;52.020;-1.740;2023-06-14T11:24:11;100142.78;;;20.31;100.00
51452;BME280;37521;52.020;-1.740;2023-06-14T11:26:40;100137.63;;;20.39;100.00
51452;BME280;37521;52.020;-1.740;2023-06-14T11:29:09;100137.03;;;20.47;100.00
51452;BME280;37521;52.020;-1.740;2023-06-14T11:31:37;100132.72;;;20.44;100.00
51452;BME280;37521;52.020;-1.740;2023-06-14T11:34:06;100128.41;;;20.32;100.00
51452;BME280;37521;52.020;-1.740;2023-06-14T11:36:35;100128.56;;;20.51;100.00
51452;BME280;37521;52.020;-1.740;2023-06-14T11:39:04;100132.22;;;20.50;100.00
51452;BME280;37521;52.020;-1.740;2023-06-14T11:41:37;100130.66;;;20.68;100.00
51452;BME280;37521;52.020;-1.740;2023-06-14T11:44:07;100121.75;;;20.99;96.84
51452;BME280;37521;52.020;-1.740;2023-06-14T11:46:36;100124.13;;;21.22;100.00
51452;BME280;37521;52.020;-1.740;2023-06-14T11:49:07;100118.78;;;21.32;98.02
51452;BME280;37521;52.020;-1.740;2023-06-14T11:51:37;100120.19;;;21.27;95.51
51452;BME280;37521;52.020;-1.740;2023-06-14T11:54:06;100119.63;;;21.33;93.72
51452;BME280;37521;52.020;-1.740;2023-06-14T11:56:38;100111.19;;;21.37;95.67
51452;BME280;37521;52.020;-1.740;2023-06-14T11:59:07;100113.56;;;21.31;89.16
51452;BME280;37521;52.020;-1.740;2023-06-14T12:01:36;100102.56;;;21.34;84.35
51452;BME280;37521;52.020;-1.740;2023-06-14T12:04:06;100096.91;;;21.46;88.67
51452;BME280;37521;52.020;-1.740;2023-06-14T12:06:35;100103.16;;;21.47;89.31
51452;BME280;37521;52.020;-1.740;2023-06-14T12:09:07;100101.56;;;21.35;82.27
51452;BME280;37521;52.020;-1.740;2023-06-14T12:11:42;100108.78;;;21.34;91.96
51452;BME280;37521;52.020;-1.740;2023-06-14T12:14:11;100099.03;;;21.43;92.77
51452;BME280;37521;52.020;-1.740;2023-06-14T12:16:40;100106.94;;;21.35;82.68
51452;BME280;37521;52.020;-1.740;2023-06-14T12:19:12;100109.03;;;21.31;79.68
51452;BME280;37521;52.020;-1.740;2023-06-14T12:21:43;100107.78;;;21.35;85.41
51452;BME280;37521;52.020;-1.740;2023-06-14T12:24:14;100094.22;;;21.37;81.66
51452;BME280;37521;52.020;-1.740;2023-06-14T12:26:44;100099.78;;;21.55;77.39
51452;BME280;37521;52.020;-1.740;2023-06-14T12:29:12;100093.97;;;21.49;80.23
51452;BME280;37521;52.020;-1.740;2023-06-14T12:31:41;100096.63;;;21.40;75.85
51452;BME280;37521;52.020;-1.740;2023-06-14T12:34:10;100097.75;;;21.37;77.50
51452;BME280;37521;52.020;-1.740;2023-06-14T12:36:38;100094.91;;;21.39;82.15
51452;BME280;37521;52.020;-1.740;2023-06-14T12:39:12;100096.78;;;21.48;82.32
51452;BME280;37521;52.020;-1.740;2023-06-14T12:41:42;100097.66;;;21.68;88.75
51452;BME280;37521;52.020;-1.740;2023-06-14T12:44:12;100087.19;;;21.65;82.84
51452;BME280;37521;52.020;-1.740;2023-06-14T12:46:42;100093.69;;;21.62;82.09
51452;BME280;37521;52.020;-1.740;2023-06-14T12:49:11;100098.53;;;21.68;80.65
51452;BME280;37521;52.020;-1.740;2023-06-14T12:51:40;100088.38;;;22.20;76.54
51452;BME280;37521;52.020;-1.740;2023-06-14T12:54:09;100084.03;;;22.56;75.81